sensor_id;sensor_type;location;lat;lon;timestamp;pressure;altitude;pressure_sealevel;temperature;humidity
34482;BME280;20720;48.886;9.388;2023-05-22T00:01:37;97949.63;;;18.99;100.00
34482;BME280;20720;48.886;9.388;2023-05-22T00:04:03;97957.06;;;18.97;100.00
34482;BME280;20720;48.886;9.388;2023-05-22T00:06:28;97956.78;;;18.89;100.00
34482;BME280;20720;48.886;9.388;2023-05-22T00:08:54;97948.75;;;18.78;100.00
34482;BME280;20720;48.886;9.388;2023-05-22T00:11:21;97956.41;;;18.65;100.00
34482;BME280;20720;48.886;9.388;2023-05-22T00:13:46;97965.50;;;18.69;100.00
34482;BME280;20720;48.886;9.388;2023-05-22T00:16:11;97961.28;;;18.83;100.00
34482;BME280;20720;48.886;9.388;2023-05-22T00:18:36;97957.56;;;18.84;100.00
34482;BME280;20720;48.886;9.388;2023-05-22T00:21:02;97959.09;;;18.65;100.00
34482;BME280;20720;48.886;9.388;2023-05-22T00:23:27;97957.50;;;18.64;100.00
34482;BME280;20720;48.886;9.388;2023-05-22T00:25:53;97952.19;;;18.69;100.00
34482;BME280;20720;48.886;9.388;2023-05-22T00:28:19;97956.13;;;18.61;100.00
34482;BME280;20720;48.886;9.388;2023-05-22T00:30:44;97946.41;;;17.62;100.00
34482;BME280;20720;48.886;9.388;2023-05-22T00:33:10;97937.75;;;17.76;100.00
34482;BME280;20720;48.886;9.388;2023-05-22T00:35:36;97933.78;;;18.21;100.00
34482;BME280;20720;48.886;9.388;2023-05-22T00:38:02;97946.25;;;18.10;100.00
34482;BME280;20720;48.886;9.388;2023-05-22T00:40:28;97945.03;;;18.28;100.00
34482;BME280;20720;48.886;9.388;2023-05-22T00:42:54;97951.41;;;18.27;100.00
34482;BME280;20720;48.886;9.388;2023-05-22T00:45:19;97955.78;;;18.43;100.00
34482;BME280;20720;48.886;9.388;2023-05-22T00:47:46;97949.81;;;18.26;100.00
34482;BME280;20720;48.886;9.388;2023-05-22T00:50:11;97948.47;;;18.28;100.00
34482;BME280;20720;48.886;9.388;2023-05-22T00:52:40;97942.63;;;17.84;100.00
34482;BME280;20720;48.886;9.388;2023-05-22T00:55:07;97941.38;;;17.97;100.00
34482;BME280;20720;48.886;9.388;2023-05-22T00:57:32;97943.88;;;18.19;100.00
34482;BME280;20720;48.886;9.388;2023-05-22T00:59:59;97930.78;;;17.39;100.00
34482;BME280;20720;48.886;9.388;2023-05-22T01:02:25;97929.03;;;17.49;100.00
34482;BME280;20720;48.886;9.388;2023-05-22T01:04:52;97930.53;;;17.40;100.00
34482;BME280;20720;48.886;9.388;2023-05-22T01:07:19;97931.81;;;17.64;100.00
34482;BME280;20720;48.886;9.388;2023-05-22T01:09:45;97937.94;;;17.65;100.00
34482;BME280;20720;48.886;9.388;2023-05-22T01:12:51;97934.84;;;17.46;100.00
34482;BME280;20720;48.886;9.388;2023-05-22T01:15:17;97933.59;;;17.27;100.00
34482;BME280;20720;48.886;9.388;2023-05-22T01:20:29;97927.97;;;17.24;100.00
34482;BME280;20720;48.886;9.388;2023-05-22T01:23:18;97932.94;;;17.15;100.00
34482;BME280;20720;48.886;9.388;2023-05-22T01:28:54;97948.03;;;17.68;100.00
34482;BME280;20720;48.886;9.388;2023-05-22T01:31:24;97939.22;;;17.09;100.00
34482;BME280;20720;48.886;9.388;2023-05-22T01:33:53;97952.34;;;17.47;100.00
34482;BME280;20720;48.886;9.388;2023-05-22T01:36:20;97951.09;;;17.50;100.00
34482;BME280;20720;48.886;9.388;2023-05-22T01:38:49;97959.19;;;17.65;100.00
34482;BME280;20720;48.886;9.388;2023-05-22T01:41:16;97961.50;;;17.56;100.00
34482;BME280;20720;48.886;9.388;2023-05-22T01:43:42;97958.59;;;17.58;100.00
34482;BME280;20720;48.886;9.388;2023-05-22T01:46:07;97962.09;;;17.63;100.00
34482;BME280;20720;48.886;9.388;2023-05-22T01:48:33;97953.56;;;17.35;100.00
34482;BME280;20720;48.886;9.388;2023-05-22T01:51:08;97957.63;;;17.16;100.00
34482;BME280;20720;48.886;9.388;2023-05-22T01:53:42;97960.28;;;17.16;100.00
34482;BME280;20720;48.886;9.388;2023-05-22T01:56:23;97964.38;;;17.02;100.00
34482;BME280;20720;48.886;9.388;2023-05-22T01:59:13;97969.78;;;17.12;100.00
34482;BME280;20720;48.886;9.388;2023-05-22T02:01:40;97963.50;;;17.44;100.00
34482;BME280;20720;48.886;9.388;2023-05-22T02:04:08;97962.97;;;17.47;100.00
34482;BME280;20720;48.886;9.388;2023-05-22T02:06:34;97960.94;;;17.54;100.00
34482;BME280;20720;48.886;9.388;2023-05-22T02:09:01;97966.25;;;16.79;100.00
34482;BME280;20720;48.886;9.388;2023-05-22T02:11:28;97954.31;;;16.39;100.00
34482;BME280;20720;48.886;9.388;2023-05-22T02:13:55;97959.88;;;16.59;100.00
34482;BME280;20720;48.886;9.388;2023-05-22T02:16:21;97956.88;;;16.72;100.00
34482;BME280;20720;48.886;9.388;2023-05-22T02:18:47;97959.25;;;16.95;100.00
34482;BME280;20720;48.886;9.388;2023-05-22T02:21:12;97962.91;;;17.11;100.00
34482;BME280;20720;48.886;9.388;2023-05-22T02:23:38;97953.84;;;16.85;100.00
34482;BME280;20720;48.886;9.388;2023-05-22T02:26:04;97959.00;;;16.75;100.00
34482;BME280;20720;48.886;9.388;2023-05-22T02:28:30;97952.19;;;17.06;100.00
34482;BME280;20720;48.886;9.388;2023-05-22T02:30:56;97960.59;;;17.19;100.00
34482;BME280;20720;48.886;9.388;2023-05-22T02:33:21;97958.81;;;16.60;100.00
34482;BME280;20720;48.886;9.388;2023-05-22T02:35:46;97951.13;;;16.80;100.00
34482;BME280;20720;48.886;9.388;2023-05-22T02:38:12;97962.56;;;17.07;100.00
34482;BME280;20720;48.886;9.388;2023-05-22T02:40:37;97961.72;;;17.28;100.00
34482;BME280;20720;48.886;9.388;2023-05-22T02:43:02;97966.41;;;17.16;100.00
34482;BME280;20720;48.886;9.388;2023-05-22T02:45:28;97956.53;;;16.90;100.00
34482;BME280;20720;48.886;9.388;2023-05-22T02:47:53;97953.34;;;16.66;100.00
34482;BME280;20720;48.886;9.388;2023-05-22T02:50:18;97945.91;;;16.63;100.00
34482;BME280;20720;48.886;9.388;2023-05-22T02:52:44;97956.88;;;16.93;100.00
34482;BME280;20720;48.886;9.388;2023-05-22T02:55:09;97956.34;;;16.97;100.00
34482;BME280;20720;48.886;9.388;2023-05-22T02:57:35;97963.41;;;16.64;100.00
34482;BME280;20720;48.886;9.388;2023-05-22T03:00:00;97963.38;;;17.08;100.00
34482;BME280;20720;48.886;9.388;2023-05-22T03:02:25;97965.56;;;17.11;100.00
34482;BME280;20720;48.886;9.388;2023-05-22T03:04:52;97969.06;;;17.16;100.00
34482;BME280;20720;48.886;9.388;2023-05-22T03:07:17;97968.22;;;17.11;100.00
34482;BME280;20720;48.886;9.388;2023-05-22T03:09:45;97971.03;;;16.82;100.00
34482;BME280;20720;48.886;9.388;2023-05-22T03:12:10;97965.00;;;16.87;100.00
34482;BME280;20720;48.886;9.388;2023-05-22T03:14:36;97965.69;;;16.99;100.00
34482;BME280;20720;48.886;9.388;2023-05-22T03:17:01;97963.59;;;17.01;100.00
34482;BME280;20720;48.886;9.388;2023-05-22T03:19:26;97967.00;;;17.23;100.00
34482;BME280;20720;48.886;9.388;2023-05-22T03:21:51;97961.28;;;17.36;100.00
34482;BME280;20720;48.886;9.388;2023-05-22T03:24:17;97962.91;;;17.37;100.00
34482;BME280;20720;48.886;9.388;2023-05-22T03:26:42;97961.72;;;17.50;100.00
34482;BME280;20720;48.886;9.388;2023-05-22T03:29:08;97954.69;;;17.39;100.00
34482;BME280;20720;48.886;9.388;2023-05-22T03:31:33;97970.91;;;17.42;100.00
34482;BME280;20720;48.886;9.388;2023-05-22T03:33:59;97959.34;;;17.53;100.00
34482;BME280;20720;48.886;9.388;2023-05-22T03:36:25;97966.50;;;17.53;100.00
34482;BME280;20720;48.886;9.388;2023-05-22T03:38:50;97973.75;;;17.57;100.00
34482;BME280;20720;48.886;9.388;2023-05-22T03:41:16;97979.59;;;17.33;100.00
34482;BME280;20720;48.886;9.388;2023-05-22T03:43:42;97977.13;;;17.53;100.00
34482;BME280;20720;48.886;9.388;2023-05-22T03:46:07;97988.66;;;17.37;100.00
34482;BME280;20720;48.886;9.388;2023-05-22T03:48:34;97989.56;;;17.74;100.00
34482;BME280;20720;48.886;9.388;2023-05-22T03:50:59;97987.19;;;17.77;100.00
34482;BME280;20720;48.886;9.388;2023-05-22T03:53:25;97989.09;;;17.50;100.00
34482;BME280;20720;48.886;9.388;2023-05-22T03:55:50;97986.47;;;17.55;100.00
34482;BME280;20720;48.886;9.388;2023-05-22T03:58:15;97991.66;;;17.45;100.00
34482;BME280;20720;48.886;9.388;2023-05-22T04:00:40;97993.41;;;17.35;100.00
34482;BME280;20720;48.886;9.388;2023-05-22T04:03:06;97994.81;;;17.42;100.00
34482;BME280;20720;48.886;9.388;2023-05-22T04:05:37;98005.22;;;17.22;100.00
34482;BME280;20720;48.886;9.388;2023-05-22T04:08:02;97996.53;;;16.62;100.00
34482;BME280;20720;48.886;9.388;2023-05-22T04:10:27;97992.31;;;17.09;100.00
34482;BME280;20720;48.886;9.388;2023-05-22T04:12:53;97998.66;;;17.51;100.00
34482;BME280;20720;48.886;9.388;2023-05-22T04:15:18;97994.97;;;17.84;100.00
34482;BME280;20720;48.886;9.388;2023-05-22T04:17:43;97990.38;;;16.78;100.00
34482;BME280;20720;48.886;9.388;2023-05-22T04:20:09;97990.25;;;17.38;100.00
34482;BME280;20720;48.886;9.388;2023-05-22T04:22:35;98000.91;;;17.64;100.00
34482;BME280;20720;48.886;9.388;2023-05-22T04:25:00;98000.28;;;18.21;100.00
34482;BME280;20720;48.886;9.388;2023-05-22T04:27:26;98003.22;;;18.56;100.00
34482;BME280;20720;48.886;9.388;2023-05-22T04:29:53;98001.28;;;17.78;100.00
34482;BME280;20720;48.886;9.388;2023-05-22T04:32:19;98002.38;;;18.14;100.00
34482;BME280;20720;48.886;9.388;2023-05-22T04:34:47;97995.56;;;18.69;100.00
34482;BME280;20720;48.886;9.388;2023-05-22T04:37:14;98016.69;;;18.91;100.00
34482;BME280;20720;48.886;9.388;2023-05-22T04:39:40;98010.19;;;18.30;100.00
34482;BME280;20720;48.886;9.388;2023-05-22T04:42:06;98011.28;;;18.71;100.00
34482;BME280;20720;48.886;9.388;2023-05-22T04:44:33;98019.41;;;18.96;100.00
34482;BME280;20720;48.886;9.388;2023-05-22T04:47:01;98016.69;;;18.91;100.00
34482;BME280;20720;48.886;9.388;2023-05-22T04:49:27;98023.16;;;19.05;100.00
34482;BME280;20720;48.886;9.388;2023-05-22T04:51:56;98011.25;;;19.28;100.00
34482;BME280;20720;48.886;9.388;2023-05-22T04:54:22;98022.00;;;19.58;100.00
34482;BME280;20720;48.886;9.388;2023-05-22T04:56:49;98021.25;;;20.13;100.00
34482;BME280;20720;48.886;9.388;2023-05-22T04:59:15;98030.22;;;20.82;100.00
34482;BME280;20720;48.886;9.388;2023-05-22T05:01:41;98029.22;;;21.37;100.00
34482;BME280;20720;48.886;9.388;2023-05-22T05:04:10;98033.28;;;21.83;100.00
34482;BME280;20720;48.886;9.388;2023-05-22T05:06:35;98038.09;;;21.76;97.91
34482;BME280;20720;48.886;9.388;2023-05-22T05:09:04;98038.78;;;22.30;96.25
34482;BME280;20720;48.886;9.388;2023-05-22T05:11:30;98037.03;;;22.73;93.18
34482;BME280;20720;48.886;9.388;2023-05-22T05:13:55;98041.78;;;22.81;93.07
34482;BME280;20720;48.886;9.388;2023-05-22T05:16:21;98042.53;;;22.63;94.48
34482;BME280;20720;48.886;9.388;2023-05-22T05:18:47;98038.94;;;22.96;91.28
34482;BME280;20720;48.886;9.388;2023-05-22T05:21:12;98045.22;;;23.10;90.78
34482;BME280;20720;48.886;9.388;2023-05-22T05:23:38;98047.41;;;23.03;91.50
34482;BME280;20720;48.886;9.388;2023-05-22T05:26:03;98051.75;;;23.23;90.94
34482;BME280;20720;48.886;9.388;2023-05-22T05:28:28;98054.97;;;23.86;87.67
34482;BME280;20720;48.886;9.388;2023-05-22T05:30:54;98054.31;;;23.94;87.34
34482;BME280;20720;48.886;9.388;2023-05-22T05:33:19;98063.00;;;23.67;89.23
34482;BME280;20720;48.886;9.388;2023-05-22T05:35:44;98055.53;;;23.46;90.48
34482;BME280;20720;48.886;9.388;2023-05-22T05:38:10;98062.41;;;23.52;91.93
34482;BME280;20720;48.886;9.388;2023-05-22T05:40:35;98054.38;;;22.57;98.68
34482;BME280;20720;48.886;9.388;2023-05-22T05:43:00;98052.13;;;23.59;93.24
34482;BME280;20720;48.886;9.388;2023-05-22T05:45:25;98055.34;;;24.30;86.79
34482;BME280;20720;48.886;9.388;2023-05-22T05:47:51;98062.22;;;24.68;85.46
34482;BME280;20720;48.886;9.388;2023-05-22T05:50:16;98064.56;;;24.88;83.53
34482;BME280;20720;48.886;9.388;2023-05-22T05:52:42;98065.16;;;24.53;85.83
34482;BME280;20720;48.886;9.388;2023-05-22T05:55:07;98069.41;;;24.41;86.96
34482;BME280;20720;48.886;9.388;2023-05-22T05:57:32;98062.88;;;25.19;83.70
34482;BME280;20720;48.886;9.388;2023-05-22T05:59:58;98071.06;;;25.42;83.83
34482;BME280;20720;48.886;9.388;2023-05-22T06:02:23;98067.59;;;24.68;89.47
34482;BME280;20720;48.886;9.388;2023-05-22T06:04:48;98070.19;;;24.27;92.10
34482;BME280;20720;48.886;9.388;2023-05-22T06:07:14;98069.63;;;25.31;85.16
34482;BME280;20720;48.886;9.388;2023-05-22T06:09:40;98069.81;;;24.80;85.40
34482;BME280;20720;48.886;9.388;2023-05-22T06:12:05;98062.41;;;25.80;82.72
34482;BME280;20720;48.886;9.388;2023-05-22T06:14:31;98065.94;;;26.25;79.82
34482;BME280;20720;48.886;9.388;2023-05-22T06:16:56;98067.28;;;26.58;76.95
34482;BME280;20720;48.886;9.388;2023-05-22T06:19:22;98060.91;;;26.54;77.84
34482;BME280;20720;48.886;9.388;2023-05-22T06:21:47;98069.72;;;26.02;77.84
34482;BME280;20720;48.886;9.388;2023-05-22T06:24:12;98065.03;;;26.30;78.32
34482;BME280;20720;48.886;9.388;2023-05-22T06:26:38;98073.69;;;27.41;74.08
34482;BME280;20720;48.886;9.388;2023-05-22T06:29:03;98065.81;;;26.74;76.84
34482;BME280;20720;48.886;9.388;2023-05-22T06:31:29;98065.19;;;27.90;71.77
34482;BME280;20720;48.886;9.388;2023-05-22T06:33:56;98062.63;;;28.45;68.79
34482;BME280;20720;48.886;9.388;2023-05-22T06:36:21;98066.78;;;28.59;66.27
34482;BME280;20720;48.886;9.388;2023-05-22T06:38:46;98062.69;;;26.89;72.52
34482;BME280;20720;48.886;9.388;2023-05-22T06:41:13;98064.28;;;27.30;72.23
34482;BME280;20720;48.886;9.388;2023-05-22T06:43:38;98063.13;;;27.78;70.97
34482;BME280;20720;48.886;9.388;2023-05-22T06:46:04;98062.91;;;26.93;72.01
34482;BME280;20720;48.886;9.388;2023-05-22T06:48:34;98062.50;;;26.55;76.75
34482;BME280;20720;48.886;9.388;2023-05-22T06:51:00;98064.44;;;26.85;74.35
34482;BME280;20720;48.886;9.388;2023-05-22T06:53:25;98069.06;;;25.34;79.88
34482;BME280;20720;48.886;9.388;2023-05-22T06:55:50;98076.41;;;24.55;86.11
34482;BME280;20720;48.886;9.388;2023-05-22T06:58:16;98063.63;;;26.32;78.47
34482;BME280;20720;48.886;9.388;2023-05-22T07:00:41;98060.50;;;26.17;77.99
34482;BME280;20720;48.886;9.388;2023-05-22T07:03:06;98079.91;;;24.56;86.32
34482;BME280;20720;48.886;9.388;2023-05-22T07:05:32;98067.28;;;23.02;99.43
34482;BME280;20720;48.886;9.388;2023-05-22T07:07:57;98070.97;;;25.82;82.00
34482;BME280;20720;48.886;9.388;2023-05-22T07:10:22;98071.72;;;27.16;75.02
34482;BME280;20720;48.886;9.388;2023-05-22T07:12:51;98067.78;;;28.04;72.05
34482;BME280;20720;48.886;9.388;2023-05-22T07:15:16;98075.56;;;29.03;68.94
34482;BME280;20720;48.886;9.388;2023-05-22T07:17:41;98072.75;;;29.28;66.53
34482;BME280;20720;48.886;9.388;2023-05-22T07:20:08;98080.75;;;28.78;68.11
34482;BME280;20720;48.886;9.388;2023-05-22T07:22:33;98073.13;;;27.61;73.66
34482;BME280;20720;48.886;9.388;2023-05-22T07:24:59;98081.34;;;25.40;85.21
34482;BME280;20720;48.886;9.388;2023-05-22T07:27:24;98077.72;;;26.07;83.16
34482;BME280;20720;48.886;9.388;2023-05-22T07:29:49;98073.97;;;27.31;75.13
34482;BME280;20720;48.886;9.388;2023-05-22T07:32:14;98075.94;;;27.47;76.75
34482;BME280;20720;48.886;9.388;2023-05-22T07:34:40;98079.50;;;27.82;73.88
34482;BME280;20720;48.886;9.388;2023-05-22T07:37:07;98080.59;;;28.58;70.32
34482;BME280;20720;48.886;9.388;2023-05-22T07:39:33;98082.59;;;28.87;69.87
34482;BME280;20720;48.886;9.388;2023-05-22T07:41:58;98085.38;;;28.61;71.04
34482;BME280;20720;48.886;9.388;2023-05-22T07:44:23;98073.13;;;27.61;73.27
34482;BME280;20720;48.886;9.388;2023-05-22T07:46:49;98077.47;;;29.40;69.32
34482;BME280;20720;48.886;9.388;2023-05-22T07:49:15;98077.34;;;28.90;69.08
34482;BME280;20720;48.886;9.388;2023-05-22T07:51:43;98078.88;;;29.08;68.78
34482;BME280;20720;48.886;9.388;2023-05-22T07:54:09;98078.41;;;28.98;70.81
34482;BME280;20720;48.886;9.388;2023-05-22T07:56:34;98076.25;;;26.98;79.45
34482;BME280;20720;48.886;9.388;2023-05-22T07:59:03;98080.91;;;26.75;78.74
34482;BME280;20720;48.886;9.388;2023-05-22T08:01:28;98076.41;;;27.02;82.54
34482;BME280;20720;48.886;9.388;2023-05-22T08:03:54;98081.00;;;27.01;78.89
34482;BME280;20720;48.886;9.388;2023-05-22T08:06:19;98084.16;;;28.16;76.22
34482;BME280;20720;48.886;9.388;2023-05-22T08:08:47;98077.16;;;29.62;68.51
34482;BME280;20720;48.886;9.388;2023-05-22T08:11:12;98072.63;;;30.69;65.79
34482;BME280;20720;48.886;9.388;2023-05-22T08:13:37;98081.19;;;30.59;66.26
34482;BME280;20720;48.886;9.388;2023-05-22T08:16:03;98085.50;;;31.05;63.49
34482;BME280;20720;48.886;9.388;2023-05-22T08:18:28;98085.53;;;28.64;68.48
34482;BME280;20720;48.886;9.388;2023-05-22T08:20:53;98074.09;;;30.67;66.28
34482;BME280;20720;48.886;9.388;2023-05-22T08:23:19;98078.88;;;30.37;66.56
34482;BME280;20720;48.886;9.388;2023-05-22T08:25:44;98080.41;;;31.15;63.31
34482;BME280;20720;48.886;9.388;2023-05-22T08:28:09;98079.97;;;31.01;64.62
34482;BME280;20720;48.886;9.388;2023-05-22T08:30:35;98080.28;;;31.12;62.95
34482;BME280;20720;48.886;9.388;2023-05-22T08:33:01;98081.25;;;32.44;58.98
34482;BME280;20720;48.886;9.388;2023-05-22T08:35:26;98077.22;;;31.98;61.29
34482;BME280;20720;48.886;9.388;2023-05-22T08:37:52;98079.09;;;33.08;57.13
34482;BME280;20720;48.886;9.388;2023-05-22T08:40:19;98069.34;;;32.08;59.73
34482;BME280;20720;48.886;9.388;2023-05-22T08:42:44;98071.31;;;30.42;62.33
34482;BME280;20720;48.886;9.388;2023-05-22T08:45:10;98071.44;;;28.97;67.99
34482;BME280;20720;48.886;9.388;2023-05-22T08:47:36;98076.81;;;29.72;63.14
34482;BME280;20720;48.886;9.388;2023-05-22T08:50:02;98064.13;;;31.27;61.36
34482;BME280;20720;48.886;9.388;2023-05-22T08:52:40;98071.59;;;32.89;55.62
34482;BME280;20720;48.886;9.388;2023-05-22T08:55:07;98068.56;;;32.48;53.64
34482;BME280;20720;48.886;9.388;2023-05-22T08:57:33;98076.47;;;31.13;58.58
34482;BME280;20720;48.886;9.388;2023-05-22T08:59:58;98071.34;;;32.23;57.85
34482;BME280;20720;48.886;9.388;2023-05-22T09:02:24;98072.75;;;33.04;54.24
34482;BME280;20720;48.886;9.388;2023-05-22T09:04:50;98067.84;;;31.59;56.53
34482;BME280;20720;48.886;9.388;2023-05-22T09:07:16;98066.25;;;30.86;58.21
34482;BME280;20720;48.886;9.388;2023-05-22T09:09:41;98067.13;;;31.86;59.26
34482;BME280;20720;48.886;9.388;2023-05-22T09:12:08;98060.84;;;31.34;55.99
34482;BME280;20720;48.886;9.388;2023-05-22T09:14:43;98063.63;;;32.96;54.85
34482;BME280;20720;48.886;9.388;2023-05-22T09:17:10;98067.59;;;32.00;55.46
34482;BME280;20720;48.886;9.388;2023-05-22T09:19:45;98069.59;;;33.02;54.89
34482;BME280;20720;48.886;9.388;2023-05-22T09:22:11;98063.53;;;31.70;58.04
34482;BME280;20720;48.886;9.388;2023-05-22T09:24:39;98069.72;;;32.93;54.30
34482;BME280;20720;48.886;9.388;2023-05-22T09:27:06;98063.63;;;32.53;53.93
34482;BME280;20720;48.886;9.388;2023-05-22T09:29:38;98064.91;;;33.49;51.56
34482;BME280;20720;48.886;9.388;2023-05-22T09:32:12;98067.91;;;33.28;51.79
34482;BME280;20720;48.886;9.388;2023-05-22T09:34:39;98063.72;;;33.66;53.75
34482;BME280;20720;48.886;9.388;2023-05-22T09:37:04;98064.31;;;34.48;50.97
34482;BME280;20720;48.886;9.388;2023-05-22T09:39:40;98066.84;;;33.33;51.27
34482;BME280;20720;48.886;9.388;2023-05-22T09:42:07;98061.69;;;32.97;54.35
34482;BME280;20720;48.886;9.388;2023-05-22T09:44:37;98056.84;;;33.21;52.86
34482;BME280;20720;48.886;9.388;2023-05-22T09:47:05;98056.41;;;34.04;52.21
34482;BME280;20720;48.886;9.388;2023-05-22T09:49:34;98053.78;;;33.07;53.08
34482;BME280;20720;48.886;9.388;2023-05-22T09:52:01;98057.16;;;34.43;51.80
34482;BME280;20720;48.886;9.388;2023-05-22T09:54:30;98054.56;;;35.63;47.63
34482;BME280;20720;48.886;9.388;2023-05-22T09:56:58;98047.81;;;30.91;57.54
34482;BME280;20720;48.886;9.388;2023-05-22T09:59:26;98061.00;;;34.00;50.70
34482;BME280;20720;48.886;9.388;2023-05-22T10:01:54;98046.34;;;34.47;50.06
34482;BME280;20720;48.886;9.388;2023-05-22T10:04:21;98054.13;;;35.35;47.44
34482;BME280;20720;48.886;9.388;2023-05-22T10:06:50;98050.59;;;33.21;51.08
34482;BME280;20720;48.886;9.388;2023-05-22T10:09:16;98052.63;;;33.08;51.68
34482;BME280;20720;48.886;9.388;2023-05-22T10:11:43;98056.19;;;32.10;52.20
34482;BME280;20720;48.886;9.388;2023-05-22T10:14:09;98042.84;;;34.69;47.28
34482;BME280;20720;48.886;9.388;2023-05-22T10:16:35;98047.81;;;35.31;47.62
34482;BME280;20720;48.886;9.388;2023-05-22T10:19:04;98043.38;;;35.75;46.43
34482;BME280;20720;48.886;9.388;2023-05-22T10:21:31;98046.44;;;34.12;49.16
34482;BME280;20720;48.886;9.388;2023-05-22T10:23:58;98046.66;;;35.58;47.84
34482;BME280;20720;48.886;9.388;2023-05-22T10:26:24;98044.66;;;35.29;47.51
34482;BME280;20720;48.886;9.388;2023-05-22T10:29:11;98048.09;;;36.05;47.10
34482;BME280;20720;48.886;9.388;2023-05-22T10:31:43;98039.25;;;37.35;45.44
34482;BME280;20720;48.886;9.388;2023-05-22T10:34:14;98037.41;;;33.92;47.30
34482;BME280;20720;48.886;9.388;2023-05-22T10:37:04;98031.91;;;34.46;47.88
34482;BME280;20720;48.886;9.388;2023-05-22T10:40:00;98032.03;;;33.96;49.30
34482;BME280;20720;48.886;9.388;2023-05-22T10:42:30;98040.81;;;32.73;50.60
34482;BME280;20720;48.886;9.388;2023-05-22T10:44:55;98029.59;;;31.52;54.49
34482;BME280;20720;48.886;9.388;2023-05-22T10:47:21;98033.34;;;33.48;52.55
34482;BME280;20720;48.886;9.388;2023-05-22T10:49:46;98029.34;;;35.25;48.16
34482;BME280;20720;48.886;9.388;2023-05-22T10:52:13;98019.97;;;36.08;45.97
34482;BME280;20720;48.886;9.388;2023-05-22T10:54:42;98005.59;;;34.80;48.30
34482;BME280;20720;48.886;9.388;2023-05-22T10:57:17;98019.88;;;35.19;48.50
34482;BME280;20720;48.886;9.388;2023-05-22T10:59:43;98019.06;;;36.30;47.06
34482;BME280;20720;48.886;9.388;2023-05-22T11:02:24;98017.53;;;33.38;49.79
34482;BME280;20720;48.886;9.388;2023-05-22T11:04:53;98008.78;;;36.20;46.55
34482;BME280;20720;48.886;9.388;2023-05-22T11:07:19;98002.53;;;35.89;47.60
34482;BME280;20720;48.886;9.388;2023-05-22T11:09:44;98003.59;;;36.85;44.25
34482;BME280;20720;48.886;9.388;2023-05-22T11:12:24;98003.47;;;36.74;44.22
34482;BME280;20720;48.886;9.388;2023-05-22T11:15:07;98004.06;;;36.17;46.41
34482;BME280;20720;48.886;9.388;2023-05-22T11:17:39;98005.16;;;38.19;43.50
34482;BME280;20720;48.886;9.388;2023-05-22T11:20:25;97997.81;;;31.92;52.50
34482;BME280;20720;48.886;9.388;2023-05-22T11:22:59;97997.63;;;31.09;53.38
34482;BME280;20720;48.886;9.388;2023-05-22T11:25:26;97992.03;;;34.42;47.29
34482;BME280;20720;48.886;9.388;2023-05-22T11:27:53;97992.19;;;35.76;46.51
34482;BME280;20720;48.886;9.388;2023-05-22T11:30:19;97995.25;;;36.34;44.18
34482;BME280;20720;48.886;9.388;2023-05-22T11:32:45;97994.50;;;37.24;42.45
34482;BME280;20720;48.886;9.388;2023-05-22T11:35:19;97989.28;;;37.70;40.66
34482;BME280;20720;48.886;9.388;2023-05-22T11:37:46;97989.09;;;35.77;41.70
34482;BME280;20720;48.886;9.388;2023-05-22T11:40:14;97990.09;;;33.31;45.69
34482;BME280;20720;48.886;9.388;2023-05-22T11:42:40;97980.34;;;36.31;43.04
34482;BME280;20720;48.886;9.388;2023-05-22T11:45:06;97980.22;;;34.15;46.72
34482;BME280;20720;48.886;9.388;2023-05-22T11:47:32;97978.84;;;36.01;44.22
34482;BME280;20720;48.886;9.388;2023-05-22T11:49:57;97968.13;;;35.29;43.97
34482;BME280;20720;48.886;9.388;2023-05-22T11:52:24;97965.06;;;36.67;44.34
34482;BME280;20720;48.886;9.388;2023-05-22T11:54:52;97965.84;;;37.18;42.14
34482;BME280;20720;48.886;9.388;2023-05-22T11:57:18;97960.84;;;38.17;41.83
34482;BME280;20720;48.886;9.388;2023-05-22T11:59:44;97967.81;;;35.93;44.79
34482;BME280;20720;48.886;9.388;2023-05-22T12:02:10;97957.94;;;36.59;42.47
34482;BME280;20720;48.886;9.388;2023-05-22T12:04:36;97948.22;;;37.19;39.23
34482;BME280;20720;48.886;9.388;2023-05-22T12:07:02;97953.59;;;36.14;41.35
34482;BME280;20720;48.886;9.388;2023-05-22T12:09:27;97947.38;;;37.12;39.63
34482;BME280;20720;48.886;9.388;2023-05-22T12:11:56;97951.75;;;37.95;41.01
34482;BME280;20720;48.886;9.388;2023-05-22T12:14:28;97943.16;;;38.11;41.90
34482;BME280;20720;48.886;9.388;2023-05-22T12:16:56;97944.78;;;39.38;39.32
34482;BME280;20720;48.886;9.388;2023-05-22T12:19:24;97944.41;;;39.22;39.90
34482;BME280;20720;48.886;9.388;2023-05-22T12:21:49;97947.53;;;40.25;37.27
34482;BME280;20720;48.886;9.388;2023-05-22T12:24:15;97948.44;;;40.08;37.57
34482;BME280;20720;48.886;9.388;2023-05-22T12:26:40;97936.47;;;39.56;36.09
34482;BME280;20720;48.886;9.388;2023-05-22T12:29:13;97939.88;;;36.11;40.68
34482;BME280;20720;48.886;9.388;2023-05-22T12:31:38;97925.59;;;38.47;37.58
34482;BME280;20720;48.886;9.388;2023-05-22T12:34:05;97926.09;;;34.40;40.10
34482;BME280;20720;48.886;9.388;2023-05-22T12:36:37;97925.44;;;33.28;43.84
34482;BME280;20720;48.886;9.388;2023-05-22T12:39:06;97931.00;;;34.08;42.79
34482;BME280;20720;48.886;9.388;2023-05-22T12:41:32;97924.53;;;36.03;41.27
34482;BME280;20720;48.886;9.388;2023-05-22T12:43:57;97920.47;;;38.35;37.73
34482;BME280;20720;48.886;9.388;2023-05-22T12:46:23;97926.31;;;36.25;41.70
34482;BME280;20720;48.886;9.388;2023-05-22T12:48:48;97926.13;;;36.44;41.28
34482;BME280;20720;48.886;9.388;2023-05-22T12:51:13;97936.94;;;37.28;40.73
34482;BME280;20720;48.886;9.388;2023-05-22T12:53:38;97933.81;;;38.33;38.98
34482;BME280;20720;48.886;9.388;2023-05-22T12:56:04;97929.94;;;38.80;38.50
34482;BME280;20720;48.886;9.388;2023-05-22T12:58:29;97934.72;;;39.90;37.38
34482;BME280;20720;48.886;9.388;2023-05-22T13:00:55;97936.41;;;39.70;36.46